Time;durP1;ratioP1;P1;durP2;ratioP2;P2;SDS_P1;SDS_P2;PMS_P1;PMS_P2;Temp;Humidity;BMP_temperature;BMP_pressure;BME280_temperature;BME280_humidity;BME280_pressure;Samples;Min_cycle;Max_cycle;Signal;HPM_P1;HPM_P2
2021/05/28 14:51:21;;;;;;;5.22;1.92;;;30.40;23.40;;;;;;5098504;27;20055;-72
2021/05/28 14:53:47;;;;;;;9.10;2.22;;;29.70;23.30;;;;;;5093130;28;20044;-72
2021/05/28 14:56:15;;;;;;;5.18;1.90;;;29.40;23.80;;;;;;5074891;28;20400;-72
2021/05/28 14:58:41;;;;;;;5.50;2.42;;;29.50;25.00;;;;;;5075227;28;20044;-73
2021/05/28 15:01:08;;;;;;;6.03;2.83;;;29.40;24.90;;;;;;5091915;28;20039;-72
2021/05/28 15:03:36;;;;;;;5.72;2.33;;;29.50;24.90;;;;;;5075398;28;20119;-72
2021/05/28 15:06:04;;;;;;;6.72;2.22;;;29.50;25.80;;;;;;5093510;28;20206;-72
2021/05/28 15:08:30;;;;;;;4.47;1.98;;;29.40;24.90;;;;;;5075264;28;20615;-73
2021/05/28 15:11:01;;;;;;;3.72;1.70;;;29.30;24.70;;;;;;5073944;28;20048;-72
2021/05/28 15:13:28;;;;;;;3.95;1.42;;;29.30;25.20;;;;;;5075049;28;20527;-73
2021/05/28 15:15:55;;;;;;;6.43;2.92;;;29.20;25.10;;;;;;5075170;28;20036;-73
2021/05/28 15:18:24;;;;;;;5.65;1.50;;;29.10;25.00;;;;;;5075521;28;20052;-72
2021/05/28 15:20:51;;;;;;;4.43;1.30;;;28.90;25.00;;;;;;5075190;28;20442;-72
2021/05/28 15:23:17;;;;;;;2.63;1.13;;;28.70;25.80;;;;;;5058196;28;20484;-72
2021/05/28 15:25:44;;;;;;;7.35;1.33;;;28.40;25.70;;;;;;5093095;28;20047;-72
2021/05/28 15:28:11;;;;;;;3.75;1.10;;;28.30;26.60;;;;;;5074813;28;20042;-72
2021/05/28 15:30:37;;;;;;;42.30;20.88;;;28.20;26.70;;;;;;5058119;28;20036;-73
2021/05/28 15:33:06;;;;;;;56.85;28.42;;;28.00;26.90;;;;;;5093040;28;20072;-73
2021/05/28 15:35:34;;;;;;;51.78;20.92;;;28.00;26.70;;;;;;5074868;28;20036;-72
2021/05/28 15:38:02;;;;;;;4.38;1.70;;;28.00;27.90;;;;;;5092919;28;20036;-72
2021/05/28 15:40:29;;;;;;;2.22;1.00;;;28.00;27.30;;;;;;5057946;28;20040;-72
2021/05/28 15:42:56;;;;;;;3.78;1.15;;;27.90;27.90;;;;;;5092756;28;20040;-73
2021/05/28 15:45:23;;;;;;;4.45;1.25;;;27.80;27.70;;;;;;5074658;28;20040;-72
2021/05/28 15:47:50;;;;;;;2.78;1.38;;;27.70;27.90;;;;;;5074811;28;20068;-73
2021/05/28 15:50:21;;;;;;;3.75;1.13;;;27.60;28.50;;;;;;5092315;28;20040;-73
2021/05/28 15:52:51;;;;;;;8.85;1.45;;;27.50;28.60;;;;;;5074781;28;20159;-72
2021/05/28 15:55:18;;;;;;;2.95;1.13;;;27.60;28.60;;;;;;5074829;28;20028;-72
2021/05/28 15:57:45;;;;;;;2.08;1.00;;;27.50;28.60;;;;;;5092716;28;20444;-73
2021/05/28 16:00:32;;;;;;;3.83;1.60;;;27.20;28.90;;;;;;5074624;28;20040;-72
2021/05/28 16:03:18;;;;;;;;;;;27.00;29.20;;;;;;5075338;28;20528;-73
2021/05/28 16:05:47;;;;;;;10.73;1.15;;;26.80;28.80;;;;;;5092467;28;20292;-72
2021/05/28 16:08:16;;;;;;;9.85;1.42;;;26.80;30.00;;;;;;5074526;28;20048;-72
2021/05/28 16:11:02;;;;;;;9.45;1.55;;;26.80;30.00;;;;;;5074730;28;20040;-72
2021/05/28 16:13:28;;;;;;;13.80;1.90;;;26.80;30.40;;;;;;5074619;28;20036;-72
2021/05/28 16:15:55;;;;;;;9.90;1.67;;;26.70;30.20;;;;;;5092728;28;20044;-73
2021/05/28 16:18:21;;;;;;;3.92;1.42;;;26.80;30.20;;;;;;5074357;28;20512;-73
2021/05/28 16:20:48;;;;;;;14.13;2.08;;;26.90;29.90;;;;;;5074543;28;20511;-73
2021/05/28 16:23:15;;;;;;;11.23;6.22;;;26.90;29.60;;;;;;5074281;28;20093;-72
2021/05/28 16:25:41;;;;;;;10.98;7.22;;;26.90;30.00;;;;;;5074333;28;20137;-73
2021/05/28 16:28:10;;;;;;;7.35;2.70;;;26.90;29.60;;;;;;5092414;28;20036;-72
2021/05/28 16:30:51;;;;;;;7.28;3.20;;;26.80;29.60;;;;;;5092331;28;20399;-72
2021/05/28 16:33:19;;;;;;;8.85;3.00;;;26.80;30.00;;;;;;5076655;28;20129;-73
2021/05/28 16:35:48;;;;;;;4.13;1.30;;;26.60;30.50;;;;;;5092408;28;20032;-73
2021/05/28 16:38:15;;;;;;;3.30;1.25;;;26.50;30.70;;;;;;5074665;28;20044;-72
2021/05/28 16:40:42;;;;;;;4.35;1.73;;;26.40;30.80;;;;;;5078169;28;20039;-73
2021/05/28 16:43:09;;;;;;;5.32;1.20;;;26.20;31.40;;;;;;5077926;28;20044;-72
2021/05/28 16:45:37;;;;;;;4.13;1.63;;;26.10;31.60;;;;;;5077976;28;20036;-72
2021/05/28 16:48:04;;;;;;;5.00;2.03;;;26.00;31.80;;;;;;5095996;28;20508;-72
2021/05/28 16:53:16;;;;;;;4.38;2.17;;;25.80;31.60;;;;;;5080580;28;20568;-72
2021/05/28 16:55:42;;;;;;;6.00;2.60;;;25.70;32.40;;;;;;5095803;28;20689;-71
2021/05/28 16:58:09;;;;;;;6.03;2.55;;;25.60;33.00;;;;;;5077736;28;20052;-72
2021/05/28 17:00:35;;;;;;;7.30;3.00;;;25.50;33.60;;;;;;5095919;28;20500;-72
2021/05/28 17:03:01;;;;;;;7.47;3.72;;;25.40;33.80;;;;;;5077705;28;20043;-72
2021/05/28 17:05:31;;;;;;;4.05;1.80;;;25.30;34.20;;;;;;5077534;28;20055;-72
2021/05/28 17:07:58;;;;;;;5.45;2.22;;;25.20;34.40;;;;;;5077946;28;20054;-73
2021/05/28 17:10:26;;;;;;;3.50;1.45;;;25.10;34.80;;;;;;5077433;28;20407;-72
2021/05/28 17:12:52;;;;;;;6.88;3.20;;;25.00;35.00;;;;;;5095574;28;20115;-72
2021/05/28 17:15:19;;;;;;;5.70;2.92;;;25.00;34.60;;;;;;5077317;28;20058;-73
2021/05/28 17:17:45;;;;;;;9.18;2.53;;;24.80;35.30;;;;;;5077434;28;20074;-72
2021/05/28 17:20:12;;;;;;;10.95;5.85;;;24.80;35.70;;;;;;5095397;28;20428;-73
2021/05/28 17:22:39;;;;;;;31.13;14.00;;;24.60;36.00;;;;;;5077418;28;20062;-72
2021/05/28 17:25:08;;;;;;;25.83;11.23;;;24.60;36.10;;;;;;5060227;28;20126;-72
2021/05/28 17:27:40;;;;;;;35.20;15.32;;;24.50;36.50;;;;;;5077241;28;20522;-72
2021/05/28 17:30:28;;;;;;;20.88;10.18;;;24.40;36.90;;;;;;5060921;28;20408;-71
2021/05/28 17:32:54;;;;;;;11.05;5.22;;;24.30;37.30;;;;;;5094641;28;20080;-71
2021/05/28 17:35:21;;;;;;;9.35;3.72;;;24.20;37.30;;;;;;5076545;28;20040;-72
2021/05/28 17:37:48;;;;;;;12.95;5.63;;;24.10;37.10;;;;;;5094987;28;20040;-73
2021/05/28 17:40:18;;;;;;;11.07;4.15;;;24.00;37.40;;;;;;5060132;28;20051;-73
2021/05/28 17:42:45;;;;;;;11.52;5.38;;;23.80;38.00;;;;;;5076919;28;20040;-72
2021/05/28 17:45:13;;;;;;;16.02;6.65;;;23.70;38.30;;;;;;5076668;28;20036;-72
2021/05/28 17:47:40;;;;;;;12.77;5.88;;;23.60;38.50;;;;;;5076719;28;20554;-71
2021/05/28 17:50:10;;;;;;;9.25;4.25;;;23.50;39.00;;;;;;5074460;28;20047;-72
2021/05/28 17:52:36;;;;;;;11.55;3.38;;;23.40;38.80;;;;;;5091058;28;20044;-72
2021/05/28 17:55:05;;;;;;;13.55;4.32;;;23.40;39.40;;;;;;5094529;28;20400;-73
2021/05/28 17:57:31;;;;;;;18.00;7.78;;;23.30;39.80;;;;;;5076555;28;20563;-71
2021/05/28 17:59:57;;;;;;;18.33;10.23;;;23.20;40.10;;;;;;5076571;28;20044;-72
2021/05/28 18:02:25;;;;;;;15.05;7.57;;;23.10;40.50;;;;;;5076628;28;20055;-72
2021/05/28 18:04:52;;;;;;;18.15;8.35;;;22.90;40.10;;;;;;5094416;28;20438;-72
2021/05/28 18:07:18;;;;;;;17.45;7.57;;;22.90;41.10;;;;;;5076723;28;20491;-71
2021/05/28 18:09:44;;;;;;;13.57;6.22;;;22.70;41.50;;;;;;5076349;28;20385;-72
2021/05/28 18:12:11;;;;;;;8.55;3.33;;;22.60;41.90;;;;;;5094856;28;20040;-73
2021/05/28 18:14:38;;;;;;;6.13;2.15;;;22.40;41.50;;;;;;5076065;28;20416;-72
2021/05/28 18:17:05;;;;;;;5.13;2.33;;;22.30;42.60;;;;;;5076169;28;20037;-71
2021/05/28 18:19:31;;;;;;;7.63;2.67;;;22.20;42.10;;;;;;5076126;28;20044;-72
2021/05/28 18:21:58;;;;;;;8.77;2.85;;;22.10;42.50;;;;;;5076427;28;20119;-71
2021/05/28 18:24:25;;;;;;;25.20;12.25;;;22.00;43.20;;;;;;5076052;28;20105;-72
2021/05/28 18:26:52;;;;;;;16.17;7.38;;;21.90;43.90;;;;;;5093815;28;20491;-72
2021/05/28 18:29:18;;;;;;;10.55;4.43;;;21.80;45.40;;;;;;5093994;28;20055;-73
2021/05/28 18:31:45;;;;;;;8.30;3.80;;;21.70;45.90;;;;;;5076099;28;20032;-72
2021/05/28 18:34:12;;;;;;;7.70;3.75;;;21.50;47.20;;;;;;5075868;28;20408;-72
2021/05/28 18:36:39;;;;;;;10.32;3.50;;;21.40;47.80;;;;;;5094196;28;20047;-71
2021/05/28 18:39:08;;;;;;;7.22;3.33;;;21.30;48.40;;;;;;5094071;28;20503;-72
2021/05/28 18:41:36;;;;;;;6.20;2.50;;;21.20;48.90;;;;;;5075875;28;20123;-72
2021/05/28 18:44:04;;;;;;;9.50;2.55;;;21.10;49.20;;;;;;5058929;28;20131;-72
2021/05/28 18:46:30;;;;;;;6.53;2.70;;;20.90;49.00;;;;;;5093964;28;20048;-72
2021/05/28 18:48:57;;;;;;;6.03;2.42;;;20.90;49.40;;;;;;5093627;28;20032;-72
2021/05/28 18:51:23;;;;;;;8.57;2.42;;;20.80;49.20;;;;;;5075348;28;20074;-72
2021/05/28 18:53:52;;;;;;;5.78;2.40;;;20.70;50.10;;;;;;5075457;28;20043;-72
2021/05/28 18:56:19;;;;;;;8.43;2.85;;;20.60;50.20;;;;;;5075978;28;20071;-72
2021/05/28 18:58:48;;;;;;;6.97;2.75;;;20.60;50.40;;;;;;5093428;28;20037;-72
2021/05/28 19:01:16;;;;;;;6.47;2.65;;;20.50;50.60;;;;;;5075136;28;20370;-71
2021/05/28 19:03:43;;;;;;;6.57;2.53;;;20.40;50.80;;;;;;5075133;28;20560;-72
2021/05/28 19:06:11;;;;;;;5.93;2.35;;;20.40;50.50;;;;;;5075292;28;20047;-72
2021/05/28 19:08:38;;;;;;;5.10;2.45;;;20.30;51.10;;;;;;5058466;28;20044;-71
2021/05/28 19:11:09;;;;;;;9.25;2.40;;;20.20;51.20;;;;;;5075265;28;20040;-72
2021/05/28 19:13:38;;;;;;;5.22;2.22;;;20.20;51.60;;;;;;5093227;28;20036;-72
2021/05/28 19:16:06;;;;;;;4.50;1.80;;;20.10;51.70;;;;;;5075221;28;20549;-72
2021/05/28 19:18:33;;;;;;;8.60;2.08;;;20.00;51.70;;;;;;5058497;28;20040;-72
2021/05/28 19:21:02;;;;;;;11.73;3.50;;;19.90;51.50;;;;;;5093246;28;20094;-71
2021/05/28 19:23:31;;;;;;;8.73;4.00;;;19.80;52.10;;;;;;5075404;28;20146;-72
2021/05/28 19:25:58;;;;;;;11.73;4.82;;;19.70;52.70;;;;;;5075062;28;20534;-71
2021/05/28 19:28:26;;;;;;;12.05;5.80;;;19.60;52.90;;;;;;5093057;28;20047;-72
2021/05/28 19:30:54;;;;;;;13.77;5.75;;;19.50;53.20;;;;;;5075032;28;20131;-72
2021/05/28 19:33:21;;;;;;;12.50;5.82;;;19.40;53.60;;;;;;5074996;28;20042;-71
2021/05/28 19:35:49;;;;;;;12.05;6.13;;;19.30;53.90;;;;;;5057059;28;20120;-71
2021/05/28 19:38:16;;;;;;;14.63;7.10;;;19.20;53.90;;;;;;5074959;28;20127;-72
2021/05/28 19:40:43;;;;;;;16.08;5.90;;;19.10;54.10;;;;;;5074894;28;20492;-72
2021/05/28 19:43:09;;;;;;;13.43;6.07;;;19.00;54.30;;;;;;5066862;28;20067;-72
2021/05/28 19:45:36;;;;;;;10.77;5.45;;;18.90;54.40;;;;;;5054512;28;20064;-72
2021/05/28 19:48:05;;;;;;;9.40;4.25;;;18.80;53.90;;;;;;5054681;28;20075;-71
2021/05/28 19:55:51;;;;;;;7.78;2.85;;;18.50;54.60;;;;;;5072902;28;20045;-72
2021/05/28 19:58:20;;;;;;;5.75;2.70;;;18.40;53.80;;;;;;5054654;28;20128;-72
2021/05/28 20:00:52;;;;;;;10.05;2.72;;;18.40;54.50;;;;;;5054653;28;20068;-71
2021/05/28 20:03:20;;;;;;;4.57;2.50;;;18.30;54.70;;;;;;5055352;28;20068;-72
2021/05/28 20:05:47;;;;;;;5.03;2.35;;;18.20;54.60;;;;;;5074475;28;20072;-72
2021/05/28 20:08:15;;;;;;;6.97;2.47;;;18.10;55.00;;;;;;5058079;28;20492;-72
2021/05/28 20:16:14;;;;;;;7.63;3.83;;;17.90;55.30;;;;;;5081400;28;20038;-72
2021/05/28 20:18:41;;;;;;;8.95;3.88;;;17.80;55.50;;;;;;5078435;28;20436;-72
2021/05/28 20:21:10;;;;;;;6.78;3.65;;;17.70;55.90;;;;;;5061238;28;20040;-72
2021/05/28 20:23:37;;;;;;;8.65;3.55;;;17.60;56.10;;;;;;5058443;28;20037;-72
2021/05/28 20:26:04;;;;;;;9.68;3.97;;;17.50;56.20;;;;;;5076330;28;20488;-71
2021/05/28 20:28:31;;;;;;;11.50;3.88;;;17.40;56.20;;;;;;5076071;28;20036;-72
2021/05/28 20:30:58;;;;;;;8.48;3.70;;;17.30;56.10;;;;;;5058181;28;20068;-72
2021/05/28 20:33:26;;;;;;;7.95;3.75;;;17.30;56.00;;;;;;5067861;28;20043;-72
2021/05/28 20:36:11;;;;;;;6.65;3.35;;;17.30;56.80;;;;;;5075711;28;20087;-72
2021/05/28 20:38:39;;;;;;;8.65;3.58;;;17.20;56.70;;;;;;5076485;28;20789;-72
2021/05/28 20:41:05;;;;;;;9.80;5.70;;;17.20;56.70;;;;;;5087193;28;20040;-72
2021/05/28 20:43:32;;;;;;;8.27;3.90;;;17.10;57.30;;;;;;5067607;28;20040;-72
2021/05/28 20:45:59;;;;;;;6.25;3.10;;;17.20;58.00;;;;;;5042913;28;20396;-73
2021/05/28 20:48:26;;;;;;;8.45;3.63;;;17.30;57.40;;;;;;5066723;28;20043;-71
2021/05/28 20:58:54;;;;;;;;;;;17.30;56.50;;;;;;5058119;28;20044;-72
2021/05/28 21:01:21;;;;;;;5.63;2.63;;;17.20;55.50;;;;;;5057729;28;19916;-72
2021/05/28 21:04:02;;;;;;;9.23;2.92;;;17.10;55.70;;;;;;5068597;28;20037;-72
2021/05/28 21:06:29;;;;;;;4.90;2.35;;;17.00;55.90;;;;;;5095598;28;20044;-72
2021/05/28 21:08:55;;;;;;;5.47;2.70;;;17.00;56.20;;;;;;5077424;28;20100;-72
2021/05/28 21:11:21;;;;;;;;;;;16.90;56.90;;;;;;5077895;28;20040;-72
2021/05/28 21:13:47;;;;;;;9.38;2.58;;;16.80;55.50;;;;;;5077455;28;19927;-71
2021/05/28 21:16:14;;;;;;;;;;;16.70;57.10;;;;;;5077907;28;20047;-72
2021/05/28 21:18:40;;;;;;;11.23;2.05;;;16.60;55.80;;;;;;5095514;28;20384;-71
2021/05/28 21:21:06;;;;;;;;;;;16.60;57.10;;;;;;5082603;28;20118;-71
2021/05/28 21:23:32;;;;;;;3.97;1.70;;;16.50;56.00;;;;;;5075118;28;19966;-71
2021/05/28 21:25:59;;;;;;;5.30;2.10;;;16.50;57.50;;;;;;5056893;28;20039;-71
2021/05/28 21:28:25;;;;;;;7.90;2.00;;;16.30;57.20;;;;;;5075029;28;20098;-72
2021/05/28 21:30:51;;;;;;;;;;;16.30;58.00;;;;;;5057426;28;20040;-72
2021/05/28 21:33:19;;;;;;;6.43;2.30;;;16.30;57.10;;;;;;5074951;28;19942;-71
2021/05/28 21:35:45;;;;;;;6.25;2.20;;;16.20;58.00;;;;;;5075023;28;20060;-71
2021/05/28 21:38:11;;;;;;;4.88;2.20;;;16.10;58.40;;;;;;5074717;28;20044;-72
2021/05/28 21:40:38;;;;;;;7.40;2.63;;;16.10;58.50;;;;;;5068459;28;20081;-72
2021/05/28 21:43:05;;;;;;;5.82;2.30;;;16.10;58.60;;;;;;5077008;28;20484;-71
2021/05/28 21:45:32;;;;;;;4.50;2.03;;;16.00;58.20;;;;;;5059944;28;20515;-71
2021/05/28 21:47:58;;;;;;;6.97;2.22;;;16.00;58.80;;;;;;5076983;28;20075;-72
2021/05/28 21:50:26;;;;;;;6.18;2.60;;;15.90;58.50;;;;;;5094533;28;20059;-71
2021/05/28 21:52:52;;;;;;;4.93;2.35;;;15.90;58.80;;;;;;5076655;28;20044;-71
2021/05/28 21:55:19;;;;;;;5.15;2.13;;;15.90;58.90;;;;;;5094678;28;20048;-73
2021/05/28 21:57:48;;;;;;;5.20;2.15;;;15.80;59.40;;;;;;5076747;28;20047;-72
2021/05/28 22:00:36;;;;;;;4.93;2.10;;;15.80;59.50;;;;;;5076620;28;20036;-71
2021/05/28 22:03:03;;;;;;;5.05;2.20;;;15.80;59.60;;;;;;5060172;28;20503;-72
2021/05/28 22:05:31;;;;;;;4.43;2.15;;;15.70;59.40;;;;;;5076319;28;20090;-71
2021/05/28 22:07:57;;;;;;;4.40;2.15;;;15.80;59.50;;;;;;5094544;28;20036;-72
2021/05/28 22:10:23;;;;;;;4.40;2.20;;;15.80;59.70;;;;;;5076342;28;20047;-72
2021/05/28 22:12:50;;;;;;;;;;;15.80;59.50;;;;;;5094991;28;20046;-71
2021/05/28 22:15:18;;;;;;;4.70;2.17;;;15.80;58.20;;;;;;5094412;28;19995;-71
2021/05/28 22:17:44;;;;;;;5.00;2.00;;;15.80;59.10;;;;;;5059899;28;20040;-72
2021/05/28 22:20:12;;;;;;;7.07;2.47;;;15.90;59.70;;;;;;5076105;28;20500;-72
2021/05/28 22:22:39;;;;;;;6.10;3.03;;;16.00;59.50;;;;;;5076168;28;20040;-72
2021/05/28 22:25:08;;;;;;;9.70;2.90;;;16.00;59.50;;;;;;5075945;28;20500;-71
2021/05/28 22:27:51;;;;;;;8.52;2.85;;;16.00;59.50;;;;;;5076106;28;20044;-72
2021/05/28 22:35:50;;;;;;;7.82;3.30;;;16.10;59.70;;;;;;5078213;28;20043;-72
2021/05/28 22:38:17;;;;;;;7.93;3.40;;;16.20;59.70;;;;;;5076037;28;20050;-72
2021/05/28 22:40:43;;;;;;;8.55;3.50;;;16.20;59.70;;;;;;5075845;28;20520;-72
2021/05/28 22:43:09;;;;;;;;;;;16.20;59.70;;;;;;5059503;28;20036;-72
2021/05/28 22:45:45;;;;;;;6.53;3.15;;;16.20;58.80;;;;;;5058972;28;20357;-71
2021/05/28 22:48:17;;;;;;;10.10;3.38;;;16.30;59.00;;;;;;5092598;28;20385;-72
2021/05/28 22:53:31;;;;;;;6.55;2.95;;;16.30;59.90;;;;;;5078464;28;20075;-72
2021/05/28 22:55:58;;;;;;;6.47;3.10;;;16.30;59.90;;;;;;5074329;28;20032;-72
2021/05/28 22:58:25;;;;;;;6.80;3.65;;;16.30;59.70;;;;;;5093672;28;20047;-71
2021/05/28 23:01:11;;;;;;;7.28;3.53;;;16.30;60.30;;;;;;5058352;28;20058;-71
2021/05/28 23:03:38;;;;;;;8.60;4.03;;;16.30;60.30;;;;;;5093419;28;20036;-72
2021/05/28 23:06:06;;;;;;;7.45;3.58;;;16.40;60.30;;;;;;5075147;28;20040;-73
2021/05/28 23:09:00;;;;;;;6.72;3.70;;;16.40;60.40;;;;;;5074831;28;20115;-71
2021/05/28 23:12:43;;;;;;;11.63;4.20;;;16.40;60.50;;;;;;5079435;28;20059;-72
2021/05/28 23:14:17;;;;;;;9.80;4.07;;;16.40;60.40;;;;;;5077428;28;20032;-71
2021/05/28 23:16:43;;;;;;;7.03;3.50;;;16.40;60.40;;;;;;5093600;28;20361;-71
2021/05/28 23:19:10;;;;;;;;;;;16.40;60.70;;;;;;5093690;28;20096;-72
2021/05/28 23:21:37;;;;;;;6.70;3.35;;;16.40;59.70;;;;;;5058514;28;19916;-72
2021/05/28 23:24:05;;;;;;;6.63;3.10;;;16.40;60.50;;;;;;5074386;28;20054;-72
2021/05/28 23:26:33;;;;;;;6.72;3.15;;;16.40;60.80;;;;;;5075193;28;20123;-71
2021/05/28 23:29:01;;;;;;;6.78;3.10;;;16.30;61.10;;;;;;5074906;28;20136;-72
2021/05/28 23:31:28;;;;;;;6.57;3.13;;;16.30;61.50;;;;;;5074603;28;20043;-72
2021/05/28 23:33:55;;;;;;;7.95;3.53;;;16.30;61.60;;;;;;5057658;28;20047;-72
2021/05/28 23:36:22;;;;;;;7.25;3.00;;;16.30;61.20;;;;;;5075095;28;20040;-72
2021/05/28 23:38:48;;;;;;;6.50;2.90;;;16.30;61.90;;;;;;5092754;28;20044;-71
2021/05/28 23:41:18;;;;;;;5.60;3.00;;;16.20;62.00;;;;;;5075010;28;20044;-72
2021/05/28 23:43:54;;;;;;;6.35;3.20;;;16.20;62.30;;;;;;5058223;28;20579;-72
2021/05/28 23:46:21;;;;;;;5.28;2.80;;;16.20;62.20;;;;;;5074880;28;20050;-71
2021/05/28 23:48:48;;;;;;;7.13;3.28;;;16.10;61.70;;;;;;5074425;28;20047;-71
2021/05/28 23:51:14;;;;;;;;;;;16.10;62.50;;;;;;5074568;28;20424;-72
2021/05/28 23:53:40;;;;;;;6.20;2.92;;;16.10;61.50;;;;;;5058026;28;20468;-72
2021/05/28 23:56:08;;;;;;;;;;;16.00;62.00;;;;;;5093467;28;20054;-72
2021/05/28 23:58:35;;;;;;;9.50;4.20;;;16.00;61.30;;;;;;5074815;28;20392;-72
